Time;durP1;ratioP1;P1;durP2;ratioP2;P2;SDS_P1;SDS_P2;PMS_P1;PMS_P2;Temp;Humidity;BMP_temperature;BMP_pressure;BME280_temperature;BME280_humidity;BME280_pressure;Samples;Min_cycle;Max_cycle;Signal;HPM_P1;HPM_P2
2023/11/23 00:01:53;;;;;;;53.90;21.70;;;;;;;-0.74;95.92;101005.55;110505;1270;22229;-77
2023/11/23 00:04:21;;;;;;;53.40;23.00;;;;;;;-0.73;96.05;101001.02;110540;1270;22245;-77
2023/11/23 00:06:51;;;;;;;51.30;21.70;;;;;;;-0.70;96.14;100990.77;110505;1268;23223;-77
2023/11/23 00:09:20;;;;;;;51.70;21.90;;;;;;;-0.69;96.08;100988.34;110591;1273;22403;-78
2023/11/23 00:11:50;;;;;;;50.90;20.20;;;;;;;-0.67;95.96;100986.47;110602;1273;22321;-77
2023/11/23 00:14:19;;;;;;;52.60;22.10;;;;;;;-0.67;96.10;100984.83;110592;1273;22350;-77
2023/11/23 00:16:48;;;;;;;51.60;21.40;;;;;;;-0.64;96.24;100975.59;110567;1267;22162;-78
2023/11/23 00:19:17;;;;;;;47.20;20.80;;;;;;;-0.65;95.96;100970.18;110547;1273;22407;-78
2023/11/23 00:21:47;;;;;;;54.70;21.60;;;;;;;-0.67;95.91;100973.15;110600;1271;22222;-77
2023/11/23 00:24:17;;;;;;;51.10;20.60;;;;;;;-0.67;95.85;100970.02;110551;1273;22195;-77
2023/11/23 00:26:46;;;;;;;49.30;20.60;;;;;;;-0.66;95.73;100969.55;110619;1273;22192;-77
2023/11/23 00:29:15;;;;;;;52.00;20.80;;;;;;;-0.67;95.66;100956.86;110514;1267;22493;-78
2023/11/23 00:31:48;;;;;;;56.10;21.60;;;;;;;-0.67;95.92;100946.98;110622;1266;22185;-78
2023/11/23 00:34:26;;;;;;;50.00;21.60;;;;;;;-0.67;95.91;100943.85;110562;1267;22960;-78
2023/11/23 00:37:07;;;;;;;53.50;21.20;;;;;;;-0.70;95.81;100934.61;110474;1268;22165;-77
2023/11/23 00:39:46;;;;;;;54.50;21.60;;;;;;;-0.70;95.87;100919.72;110507;1267;22221;-78
2023/11/23 00:42:15;;;;;;;60.50;22.80;;;;;;;-0.70;95.84;100919.17;110612;1270;22224;-78
2023/11/23 00:44:44;;;;;;;53.80;20.80;;;;;;;-0.71;95.93;100922.22;110573;1273;22221;-78
2023/11/23 00:47:13;;;;;;;48.40;20.30;;;;;;;-0.72;96.05;100922.76;110616;1273;22190;-78
2023/11/23 00:49:42;;;;;;;48.80;22.20;;;;;;;-0.71;95.97;100921.44;110601;1273;22187;-78
2023/11/23 00:52:11;;;;;;;45.70;19.80;;;;;;;-0.71;95.97;100921.91;110546;1267;22341;-78
2023/11/23 00:54:40;;;;;;;50.40;19.00;;;;;;;-0.70;95.93;100923.16;110397;1272;22184;-78
2023/11/23 00:57:09;;;;;;;49.10;20.60;;;;;;;-0.68;95.94;100929.52;110565;1270;22188;-77
2023/11/23 00:59:38;;;;;;;48.30;20.60;;;;;;;-0.68;95.86;100924.42;110478;1273;22272;-77
2023/11/23 01:02:07;;;;;;;47.50;19.20;;;;;;;-0.68;95.84;100921.98;110497;1273;22847;-78
2023/11/23 01:04:37;;;;;;;45.60;18.60;;;;;;;-0.68;95.85;100911.34;110590;1273;22372;-78
2023/11/23 01:07:07;;;;;;;51.20;20.20;;;;;;;-0.67;95.93;100902.02;110447;1267;22333;-78
2023/11/23 01:09:45;;;;;;;47.10;19.70;;;;;;;-0.69;95.88;100894.56;110561;1265;22677;-78
2023/11/23 01:12:19;;;;;;;48.00;20.00;;;;;;;-0.69;96.08;100884.00;110500;1271;22353;-77
2023/11/23 01:15:16;;;;;;;51.30;18.60;;;;;;;-0.69;96.15;100877.02;110532;1267;23534;-77
2023/11/23 01:17:46;;;;;;;44.50;18.90;;;;;;;-0.69;96.14;100862.45;110589;1267;22256;-78
2023/11/23 01:20:20;;;;;;;44.20;18.90;;;;;;;-0.72;96.06;100851.48;110484;1266;23167;-78
2023/11/23 01:23:00;;;;;;;46.80;20.50;;;;;;;-0.72;96.14;100850.15;110544;1267;23283;-77
2023/11/23 01:25:30;;;;;;;49.40;20.10;;;;;;;-0.70;96.31;100844.98;110600;1269;22420;-78
2023/11/23 01:27:59;;;;;;;49.00;20.10;;;;;;;-0.69;96.28;100842.88;110575;1273;22224;-77
2023/11/23 01:30:28;;;;;;;48.80;19.80;;;;;;;-0.70;96.26;100846.32;110602;1273;22225;-77
2023/11/23 01:32:57;;;;;;;47.40;18.30;;;;;;;-0.70;96.28;100848.11;110568;1273;22312;-78
2023/11/23 01:35:26;;;;;;;43.60;18.80;;;;;;;-0.70;96.21;100851.88;110591;1273;22378;-78
2023/11/23 01:37:55;;;;;;;49.70;20.60;;;;;;;-0.71;96.14;100849.20;110610;1269;22166;-78
2023/11/23 01:40:24;;;;;;;52.20;20.00;;;;;;;-0.72;96.27;100839.81;110604;1270;22192;-78
2023/11/23 01:42:53;;;;;;;50.30;21.30;;;;;;;-0.72;96.30;100835.35;110579;1273;23068;-77
2023/11/23 01:45:22;;;;;;;48.00;19.40;;;;;;;-0.70;96.33;100835.11;110639;1253;22239;-78
2023/11/23 01:47:51;;;;;;;44.10;18.50;;;;;;;-0.68;96.40;100827.05;110620;1270;23365;-77
2023/11/23 01:50:21;;;;;;;44.90;18.50;;;;;;;-0.68;96.32;100822.75;110590;1270;22285;-77
2023/11/23 01:52:50;;;;;;;45.30;16.90;;;;;;;-0.65;96.32;100814.05;110591;1273;22950;-78
2023/11/23 01:55:20;;;;;;;42.50;18.60;;;;;;;-0.64;96.27;100805.75;110611;1273;22378;-77
2023/11/23 01:57:53;;;;;;;45.50;18.30;;;;;;;-0.66;96.06;100810.68;110584;1267;23034;-78
2023/11/23 02:00:24;;;;;;;47.50;19.90;;;;;;;-0.66;96.22;100807.78;110570;1266;22261;-78
2023/11/23 02:02:56;;;;;;;45.20;19.00;;;;;;;-0.65;96.31;100800.09;110553;1273;22220;-78
2023/11/23 02:05:25;;;;;;;44.30;18.80;;;;;;;-0.65;96.16;100796.10;110583;1273;22163;-78
2023/11/23 02:07:54;;;;;;;58.40;19.60;;;;;;;-0.63;96.20;100784.82;110571;1271;23212;-77
2023/11/23 02:10:28;;;;;;;51.40;20.60;;;;;;;-0.64;96.15;100775.44;110601;1273;22481;-78
2023/11/23 02:12:56;;;;;;;47.50;19.00;;;;;;;-0.63;96.30;100776.45;110558;1263;22383;-78
2023/11/23 02:15:25;;;;;;;46.40;18.60;;;;;;;-0.62;96.40;100773.78;110592;1273;22919;-77
2023/11/23 02:18:06;;;;;;;47.70;19.90;;;;;;;-0.61;96.32;100772.45;110618;1273;22900;-78
2023/11/23 02:20:36;;;;;;;48.30;20.40;;;;;;;-0.60;96.37;100774.88;110615;1273;23254;-77
2023/11/23 02:23:06;;;;;;;48.70;18.70;;;;;;;-0.60;96.30;100771.90;110595;1262;22930;-77
2023/11/23 02:25:35;;;;;;;52.20;21.00;;;;;;;-0.62;96.19;100768.92;110510;1273;22200;-78
2023/11/23 02:28:06;;;;;;;49.20;18.50;;;;;;;-0.60;96.43;100770.41;110629;1270;22271;-77
2023/11/23 02:30:34;;;;;;;44.60;17.60;;;;;;;-0.59;96.35;100769.17;110586;1273;22203;-78
2023/11/23 02:33:04;;;;;;;51.20;21.30;;;;;;;-0.62;96.16;100764.30;110616;1272;22197;-78
2023/11/23 02:35:33;;;;;;;46.90;18.90;;;;;;;-0.61;96.32;100757.64;110618;1272;22458;-78
2023/11/23 02:38:03;;;;;;;49.70;21.10;;;;;;;-0.61;96.36;100752.71;110585;1273;22218;-78
2023/11/23 02:40:31;;;;;;;50.10;18.40;;;;;;;-0.60;96.47;100747.61;110570;1273;22271;-78
2023/11/23 02:43:03;;;;;;;48.70;18.40;;;;;;;-0.58;96.56;100741.20;110518;1273;22983;-77
2023/11/23 02:45:32;;;;;;;44.70;18.70;;;;;;;-0.55;96.54;100732.57;110551;1273;22429;-78
2023/11/23 02:48:03;;;;;;;49.50;19.50;;;;;;;-0.53;96.59;100720.59;110589;1273;22238;-78
2023/11/23 02:50:31;;;;;;;;;;;;;;;-0.51;96.53;100713.84;110590;1273;22409;-77
2023/11/23 02:53:01;;;;;;;48.40;19.30;;;;;;;-0.52;96.52;100708.29;110587;1273;22161;-77
2023/11/23 02:55:29;;;;;;;54.20;20.20;;;;;;;-0.50;96.67;100705.77;110599;1271;22401;-78
2023/11/23 02:57:58;;;;;;;46.70;19.00;;;;;;;-0.49;96.64;100708.77;110635;1273;22201;-78
2023/11/23 03:00:28;;;;;;;44.20;18.70;;;;;;;-0.47;96.65;100706.09;110572;1266;22231;-78
2023/11/23 03:02:57;;;;;;;48.60;20.60;;;;;;;-0.46;96.69;100699.35;110602;1273;22185;-78
2023/11/23 03:05:26;;;;;;;49.90;19.90;;;;;;;-0.44;96.71;100697.85;110576;1270;22158;-78
2023/11/23 03:07:56;;;;;;;46.60;18.30;;;;;;;-0.43;96.72;100690.80;110596;1273;22147;-77
2023/11/23 03:10:25;;;;;;;47.00;17.90;;;;;;;-0.42;96.77;100684.30;110614;1273;22179;-77
2023/11/23 03:12:54;;;;;;;44.70;17.10;;;;;;;-0.39;96.97;100674.48;110588;1273;23235;-77
2023/11/23 03:15:23;;;;;;;46.50;19.40;;;;;;;-0.36;97.04;100669.79;110639;1256;22202;-77
2023/11/23 03:17:52;;;;;;;43.10;18.50;;;;;;;-0.35;97.13;100656.61;110534;1273;22347;-77
2023/11/23 03:20:20;;;;;;;46.10;17.90;;;;;;;-0.31;97.31;100657.08;110588;1273;22329;-77
2023/11/23 03:22:50;;;;;;;46.30;17.20;;;;;;;-0.28;97.17;100655.58;110577;1273;22171;-77
2023/11/23 03:25:20;;;;;;;44.80;17.30;;;;;;;-0.26;97.02;100652.21;110549;1273;22387;-77
2023/11/23 03:27:49;;;;;;;38.70;14.40;;;;;;;-0.24;97.23;100644.76;110600;1270;22203;-78
2023/11/23 03:30:18;;;;;;;41.90;16.00;;;;;;;-0.18;97.42;100639.16;110581;1273;22293;-78
2023/11/23 03:32:49;;;;;;;38.60;15.00;;;;;;;-0.16;97.40;100635.56;110557;1266;22191;-77
2023/11/23 03:35:18;;;;;;;41.10;16.70;;;;;;;-0.13;97.40;100636.09;110585;1273;22462;-77
2023/11/23 03:37:47;;;;;;;40.30;16.00;;;;;;;-0.10;97.43;100633.66;110567;1273;22207;-77
2023/11/23 03:40:17;;;;;;;41.50;15.90;;;;;;;-0.06;97.62;100624.31;110577;1266;22186;-77
2023/11/23 03:42:46;;;;;;;37.70;15.00;;;;;;;-0.03;97.55;100621.80;110600;1273;22979;-77
2023/11/23 03:45:16;;;;;;;40.20;15.10;;;;;;;0.01;97.52;100621.23;110597;1266;22341;-77
2023/11/23 03:47:47;;;;;;;36.80;14.60;;;;;;;0.05;97.63;100614.16;110578;1273;22281;-78
2023/11/23 03:50:14;;;;;;;;;;;;;;;0.08;97.59;100609.75;110558;1273;22449;-77
2023/11/23 03:52:44;;;;;;;37.40;13.50;;;;;;;0.10;97.59;100600.58;110589;1273;22177;-77
2023/11/23 03:55:13;;;;;;;36.60;13.40;;;;;;;0.13;97.67;100594.66;110580;1273;22577;-77
2023/11/23 03:57:42;;;;;;;;;;;;;;;0.18;97.74;100588.67;110633;1273;23655;-77
2023/11/23 04:00:13;;;;;;;33.20;12.40;;;;;;;0.20;97.59;100583.02;110586;1273;23453;-77
2023/11/23 04:02:42;;;;;;;31.60;11.90;;;;;;;0.22;97.44;100578.77;110592;1273;22372;-77
2023/11/23 04:05:12;;;;;;;39.50;13.80;;;;;;;0.24;97.38;100578.36;110575;1273;22202;-77
2023/11/23 04:07:41;;;;;;;35.20;12.80;;;;;;;0.27;97.43;100582.67;110588;1262;22480;-77
2023/11/23 04:10:11;;;;;;;38.20;14.20;;;;;;;0.30;97.52;100571.98;110591;1270;22185;-77
2023/11/23 04:12:40;;;;;;;39.70;14.00;;;;;;;0.33;97.48;100565.67;110581;1273;22207;-77
2023/11/23 04:15:12;;;;;;;32.90;13.50;;;;;;;0.36;97.30;100561.59;110618;1273;23133;-77
2023/11/23 04:17:41;;;;;;;39.70;14.70;;;;;;;0.40;97.62;100560.54;110604;1270;23437;-77
2023/11/23 04:20:11;;;;;;;37.30;15.10;;;;;;;0.43;97.46;100548.51;110592;1264;22161;-77
2023/11/23 04:22:39;;;;;;;37.20;14.60;;;;;;;0.45;97.31;100545.35;110601;1270;22224;-77
2023/11/23 04:25:10;;;;;;;40.10;14.90;;;;;;;0.47;97.34;100530.35;110570;1270;22172;-77
2023/11/23 04:27:38;;;;;;;34.30;12.30;;;;;;;0.49;97.45;100519.83;110554;1264;23125;-77
2023/11/23 04:30:11;;;;;;;34.40;12.60;;;;;;;0.53;97.47;100516.25;110545;1273;22375;-77
2023/11/23 04:32:40;;;;;;;36.90;13.20;;;;;;;0.57;97.54;100514.98;110600;1273;22817;-77
2023/11/23 04:35:10;;;;;;;36.00;12.20;;;;;;;0.59;97.54;100513.70;110539;1265;22874;-76
2023/11/23 04:37:39;;;;;;;35.60;13.40;;;;;;;0.61;97.50;100501.43;110563;1269;22369;-77
2023/11/23 04:40:10;;;;;;;29.60;10.90;;;;;;;0.63;97.53;100488.63;110521;1273;22980;-77
2023/11/23 04:42:40;;;;;;;36.90;14.10;;;;;;;0.65;97.51;100481.61;110561;1273;23030;-77
2023/11/23 04:45:10;;;;;;;;;;;;;;;0.68;97.56;100469.89;110561;1266;23567;-77
2023/11/23 04:47:39;;;;;;;31.60;11.80;;;;;;;0.70;97.49;100460.08;110512;1266;22302;-77
2023/11/23 04:50:10;;;;;;;30.40;12.50;;;;;;;0.71;97.36;100455.42;110595;1266;22211;-77
2023/11/23 04:52:37;;;;;;;;;;;;;;;0.73;97.27;100450.15;110525;1266;22450;-76
2023/11/23 04:55:40;;;;;;;28.80;10.80;;;;;;;0.74;97.45;100444.79;108995;1265;22545;-75
2023/11/23 04:58:22;;;;;;;33.70;11.70;;;;;;;0.77;97.55;100433.61;110412;1266;22194;-77
2023/11/23 05:00:51;;;;;;;31.50;10.90;;;;;;;0.80;97.58;100434.70;110503;1273;23326;-78
2023/11/23 05:07:03;;;;;;;29.70;11.50;;;;;;;0.86;97.52;100424.81;109463;1266;23554;-76
2023/11/23 05:09:39;;;;;;;36.30;13.20;;;;;;;0.88;97.54;100421.48;108306;1266;22690;-76
2023/11/23 05:12:17;;;;;;;34.60;13.20;;;;;;;0.89;97.50;100413.71;108374;1266;22228;-76
2023/11/23 05:15:00;;;;;;;33.30;12.70;;;;;;;0.92;97.62;100408.02;110510;1266;22935;-76
2023/11/23 05:17:30;;;;;;;34.10;14.30;;;;;;;0.93;97.49;100409.27;110420;1266;22347;-76
2023/11/23 05:19:59;;;;;;;33.10;13.00;;;;;;;0.94;97.47;100403.67;110470;1262;22787;-74
2023/11/23 05:22:27;;;;;;;35.50;12.70;;;;;;;0.97;97.38;100399.02;110457;1266;22526;-74
2023/11/23 05:24:56;;;;;;;29.80;12.00;;;;;;;1.00;97.56;100393.16;110561;1266;22362;-75
2023/11/23 05:27:25;;;;;;;37.10;14.70;;;;;;;1.02;97.62;100386.23;109029;1266;24206;-76
2023/11/23 05:30:03;;;;;;;34.90;13.20;;;;;;;1.04;97.59;100388.48;107927;1273;22653;-77
2023/11/23 05:32:36;;;;;;;33.40;11.70;;;;;;;1.07;97.55;100385.54;107883;1273;22538;-76
2023/11/23 05:35:07;;;;;;;38.50;13.90;;;;;;;1.09;97.54;100376.79;107961;1272;22569;-76
2023/11/23 05:37:36;;;;;;;37.10;14.10;;;;;;;1.11;97.57;100371.35;110528;1273;22378;-76
2023/11/23 05:40:08;;;;;;;32.50;12.90;;;;;;;1.14;97.64;100369.91;110570;1262;23229;-75
2023/11/23 05:42:38;;;;;;;37.90;12.80;;;;;;;1.16;97.51;100369.88;110550;1273;22929;-75
2023/11/23 05:45:09;;;;;;;33.10;12.30;;;;;;;1.17;97.53;100376.92;110532;1273;22188;-75
2023/11/23 05:47:37;;;;;;;34.70;12.70;;;;;;;1.20;97.51;100377.52;110555;1273;22233;-75
2023/11/23 05:50:08;;;;;;;39.40;12.40;;;;;;;1.22;97.47;100378.44;110536;1269;22528;-75
2023/11/23 05:52:37;;;;;;;37.40;14.50;;;;;;;1.24;97.53;100378.65;110567;1272;22278;-75
2023/11/23 05:55:07;;;;;;;32.50;12.70;;;;;;;1.26;97.57;100373.27;110593;1260;22207;-75
2023/11/23 05:57:35;;;;;;;37.90;14.10;;;;;;;1.28;97.53;100369.33;110570;1273;22288;-75
2023/11/23 06:00:06;;;;;;;37.20;13.50;;;;;;;1.30;97.61;100368.35;110586;1267;22418;-76
2023/11/23 06:02:35;;;;;;;35.60;13.40;;;;;;;1.31;97.45;100367.54;110505;1273;22199;-76
2023/11/23 06:05:05;;;;;;;36.40;13.50;;;;;;;1.32;97.43;100370.53;110577;1270;22981;-76
2023/11/23 06:07:34;;;;;;;34.60;13.10;;;;;;;1.32;97.42;100368.56;110601;1273;23401;-76
2023/11/23 06:10:04;;;;;;;35.00;12.50;;;;;;;1.32;97.40;100360.46;110537;1273;23517;-76
2023/11/23 06:12:34;;;;;;;35.50;14.00;;;;;;;1.34;97.47;100354.70;110547;1266;22164;-76
2023/11/23 06:15:03;;;;;;;35.90;14.20;;;;;;;1.36;97.60;100357.98;110649;1272;22249;-76
2023/11/23 06:17:32;;;;;;;32.30;12.10;;;;;;;1.38;97.55;100351.58;110555;1272;22169;-75
2023/11/23 06:20:01;;;;;;;36.40;13.40;;;;;;;1.39;97.43;100342.29;110579;1273;22171;-76
2023/11/23 06:22:32;;;;;;;37.00;14.90;;;;;;;1.41;97.63;100340.06;110549;1270;22158;-76
2023/11/23 06:25:02;;;;;;;33.40;12.50;;;;;;;1.45;97.75;100337.26;110594;1266;22207;-75
2023/11/23 06:27:32;;;;;;;32.20;12.70;;;;;;;1.48;97.87;100333.53;110566;1266;22236;-76
2023/11/23 06:30:00;;;;;;;30.70;12.50;;;;;;;1.50;97.78;100340.88;110577;1273;22204;-76
2023/11/23 06:32:29;;;;;;;32.40;13.30;;;;;;;1.53;97.73;100346.17;110582;1273;22221;-75
2023/11/23 06:34:58;;;;;;;32.10;12.40;;;;;;;1.56;97.80;100340.70;110584;1273;22383;-75
2023/11/23 06:37:26;;;;;;;33.90;13.80;;;;;;;1.59;97.81;100343.64;110594;1264;23221;-75
2023/11/23 06:39:55;;;;;;;33.70;12.70;;;;;;;1.62;97.75;100340.14;110584;1267;22194;-75
2023/11/23 06:42:24;;;;;;;33.30;12.00;;;;;;;1.64;97.75;100330.10;110571;1273;22385;-75
2023/11/23 06:44:53;;;;;;;32.90;11.30;;;;;;;1.67;97.75;100322.23;110579;1273;22185;-75
2023/11/23 06:47:22;;;;;;;30.10;10.80;;;;;;;1.69;97.75;100318.73;110579;1273;23067;-75
2023/11/23 06:49:51;;;;;;;29.70;12.10;;;;;;;1.71;97.76;100310.92;110555;1273;22197;-75
2023/11/23 06:52:20;;;;;;;30.70;9.90;;;;;;;1.73;97.73;100311.27;110586;1270;23144;-75
2023/11/23 06:54:49;;;;;;;28.60;10.40;;;;;;;1.75;97.78;100310.92;110587;1259;22208;-75
2023/11/23 06:57:18;;;;;;;29.30;11.90;;;;;;;1.76;97.75;100312.96;110627;1272;22428;-75
2023/11/23 06:59:46;;;;;;;27.40;11.10;;;;;;;1.78;97.68;100308.52;110641;1272;23069;-75
2023/11/23 07:02:15;;;;;;;29.70;10.20;;;;;;;1.80;97.70;100301.02;110590;1273;22469;-76
2023/11/23 07:04:43;;;;;;;30.40;10.20;;;;;;;1.81;97.59;100297.70;110559;1273;22214;-75
2023/11/23 07:07:13;;;;;;;29.90;10.50;;;;;;;1.82;97.66;100295.87;110581;1269;23145;-75
2023/11/23 07:09:41;;;;;;;27.30;9.30;;;;;;;1.83;97.72;100293.10;110545;1273;22250;-75
2023/11/23 07:12:10;;;;;;;28.20;9.70;;;;;;;1.85;97.84;100287.73;110582;1266;22282;-76
2023/11/23 07:14:41;;;;;;;27.90;9.20;;;;;;;1.86;97.88;100280.40;110556;1270;22234;-75
2023/11/23 07:17:08;;;;;;;;;;;;;;;1.88;97.83;100282.33;110668;1272;22451;-75
2023/11/23 07:19:37;;;;;;;24.20;8.50;;;;;;;1.89;97.74;100277.36;110580;1273;22376;-75
2023/11/23 07:22:07;;;;;;;23.30;8.00;;;;;;;1.93;97.81;100283.19;110574;1273;22350;-75
2023/11/23 07:24:35;;;;;;;21.00;7.60;;;;;;;1.95;97.68;100283.55;110575;1269;22218;-75
2023/11/23 07:27:04;;;;;;;21.80;7.60;;;;;;;1.99;97.60;100279.77;110537;1273;22359;-75
2023/11/23 07:29:33;;;;;;;19.10;6.40;;;;;;;2.03;97.64;100277.27;110561;1273;22186;-75
2023/11/23 07:32:02;;;;;;;24.60;8.20;;;;;;;2.07;97.55;100274.43;110564;1273;22694;-76
2023/11/23 07:34:31;;;;;;;23.40;7.00;;;;;;;2.12;97.39;100270.88;110566;1273;22168;-76
2023/11/23 07:37:00;;;;;;;23.60;7.50;;;;;;;2.16;97.41;100271.52;110603;1273;22931;-76
2023/11/23 07:39:29;;;;;;;18.20;6.00;;;;;;;2.20;97.22;100275.14;110596;1273;22242;-76
2023/11/23 07:41:58;;;;;;;18.70;5.10;;;;;;;2.24;97.07;100273.81;110627;1263;22203;-76
2023/11/23 07:44:28;;;;;;;18.20;6.50;;;;;;;2.27;97.09;100270.45;110555;1273;22365;-76
2023/11/23 07:46:57;;;;;;;18.70;6.10;;;;;;;2.31;97.08;100273.59;110623;1272;22227;-76
2023/11/23 07:49:26;;;;;;;15.20;5.20;;;;;;;2.34;97.09;100268.83;110588;1254;22170;-76
2023/11/23 07:51:55;;;;;;;21.40;7.10;;;;;;;2.37;97.17;100259.80;110600;1273;22987;-77
2023/11/23 07:54:24;;;;;;;20.90;5.90;;;;;;;2.40;97.21;100255.57;110623;1272;22054;-77
2023/11/23 07:56:53;;;;;;;20.50;7.10;;;;;;;2.43;97.32;100259.74;110627;1270;22316;-77
2023/11/23 07:59:22;;;;;;;20.10;6.10;;;;;;;2.46;97.37;100252.44;110623;1272;22317;-77
2023/11/23 08:01:54;;;;;;;19.60;6.40;;;;;;;2.50;97.23;100255.69;110642;1269;22791;-77
2023/11/23 08:04:24;;;;;;;19.20;6.30;;;;;;;2.53;97.25;100248.30;110587;1272;23036;-76
2023/11/23 08:06:52;;;;;;;19.70;6.00;;;;;;;2.57;97.29;100243.80;110657;1270;23061;-76
2023/11/23 08:09:21;;;;;;;20.70;6.70;;;;;;;2.61;97.24;100233.66;106641;1262;5158872;-76
2023/11/23 08:11:52;;;;;;;17.50;5.30;;;;;;;2.65;97.12;100225.23;110571;1270;23204;-76
2023/11/23 08:14:21;;;;;;;19.50;6.10;;;;;;;2.69;97.22;100220.72;110569;1267;22233;-76
2023/11/23 08:16:50;;;;;;;20.10;6.80;;;;;;;2.73;97.27;100218.82;110583;1269;22949;-76
2023/11/23 08:19:21;;;;;;;20.10;5.50;;;;;;;2.76;97.17;100220.41;110586;1273;22323;-76
2023/11/23 08:21:51;;;;;;;20.70;6.80;;;;;;;2.79;97.08;100215.47;110457;1274;22910;-76
2023/11/23 08:24:19;;;;;;;17.70;5.20;;;;;;;2.82;97.12;100209.65;110595;1273;23001;-76
2023/11/23 08:26:49;;;;;;;18.20;5.70;;;;;;;2.86;97.08;100211.45;110621;1273;22178;-77
2023/11/23 08:29:22;;;;;;;18.10;6.20;;;;;;;2.89;97.24;100213.27;110584;1266;22347;-77
2023/11/23 08:31:51;;;;;;;18.20;5.50;;;;;;;2.93;97.19;100201.05;110555;1273;23336;-76
2023/11/23 08:34:20;;;;;;;17.20;5.10;;;;;;;2.98;97.12;100199.36;110548;1273;22966;-77
2023/11/23 08:36:49;;;;;;;16.40;5.10;;;;;;;3.04;97.14;100194.82;110618;1269;22172;-77
2023/11/23 08:39:19;;;;;;;14.90;4.90;;;;;;;3.10;97.05;100190.16;110588;1272;22189;-77
2023/11/23 08:41:47;;;;;;;19.90;5.70;;;;;;;3.16;97.26;100185.70;110626;1272;22256;-77
2023/11/23 08:44:16;;;;;;;17.20;4.60;;;;;;;3.21;97.21;100187.55;110614;1272;22632;-77
2023/11/23 08:46:45;;;;;;;17.70;5.60;;;;;;;3.26;97.26;100199.58;110603;1272;22196;-77
2023/11/23 08:49:15;;;;;;;16.50;4.60;;;;;;;3.32;96.92;100201.65;110626;1273;22156;-77
2023/11/23 08:51:44;;;;;;;19.10;5.40;;;;;;;3.36;96.78;100199.81;110568;1273;22335;-77
2023/11/23 08:54:14;;;;;;;16.50;5.00;;;;;;;3.41;96.74;100197.23;110585;1273;22324;-77
2023/11/23 08:56:42;;;;;;;16.60;4.20;;;;;;;3.45;96.59;100194.00;110623;1266;22196;-77
2023/11/23 08:59:12;;;;;;;16.80;3.90;;;;;;;3.49;96.59;100196.50;110585;1267;22156;-77
2023/11/23 09:01:41;;;;;;;18.90;4.70;;;;;;;3.53;96.65;100197.80;110612;1273;23030;-78
2023/11/23 09:04:10;;;;;;;16.20;4.80;;;;;;;3.57;96.69;100192.02;110606;1273;22823;-77
2023/11/23 09:06:45;;;;;;;12.90;4.00;;;;;;;3.62;96.73;100189.63;110618;1272;22270;-77
2023/11/23 09:09:18;;;;;;;13.20;4.70;;;;;;;3.67;96.35;100182.56;110616;1272;22072;-77
2023/11/23 09:11:46;;;;;;;16.20;4.80;;;;;;;3.72;96.38;100180.05;110596;1273;22213;-77
2023/11/23 09:14:15;;;;;;;13.70;3.80;;;;;;;3.76;96.50;100173.77;110595;1273;22392;-77
2023/11/23 09:16:45;;;;;;;15.10;4.10;;;;;;;3.82;96.48;100174.11;110582;1273;22175;-77
2023/11/23 09:19:15;;;;;;;16.70;4.40;;;;;;;3.87;96.54;100172.23;110582;1273;22206;-76
2023/11/23 09:21:46;;;;;;;16.50;4.80;;;;;;;3.92;96.51;100163.73;110625;1272;22133;-76
2023/11/23 09:24:15;;;;;;;13.70;3.90;;;;;;;3.97;96.32;100156.11;110578;1272;22307;-75
2023/11/23 09:26:46;;;;;;;15.10;3.70;;;;;;;4.02;96.49;100145.29;110636;1270;22221;-75
2023/11/23 09:29:15;;;;;;;14.10;4.00;;;;;;;4.08;96.38;100141.73;110655;1269;23589;-79
2023/11/23 09:31:44;;;;;;;12.50;3.30;;;;;;;4.16;96.31;100131.98;110569;1273;22225;-75
2023/11/23 09:34:13;;;;;;;14.70;4.20;;;;;;;4.24;96.12;100130.23;110588;1266;22244;-76
2023/11/23 09:36:42;;;;;;;12.60;3.40;;;;;;;4.34;96.14;100119.85;110531;1273;23049;-76
2023/11/23 09:39:14;;;;;;;15.70;4.10;;;;;;;4.43;96.44;100113.80;110615;1272;23038;-80
2023/11/23 09:41:44;;;;;;;11.90;3.50;;;;;;;4.51;96.23;100126.84;110579;1270;22156;-76
2023/11/23 09:44:15;;;;;;;10.20;3.20;;;;;;;4.58;95.91;100118.95;110582;1273;23517;-86
2023/11/23 09:46:45;;;;;;;12.60;3.80;;;;;;;4.68;96.09;100109.34;110604;1266;22256;-76
2023/11/23 09:49:15;;;;;;;13.70;4.10;;;;;;;4.77;96.19;100110.68;110575;1272;22219;-75
2023/11/23 09:51:44;;;;;;;11.50;3.10;;;;;;;4.86;96.23;100107.47;110588;1273;22223;-76
2023/11/23 09:54:16;;;;;;;11.20;3.00;;;;;;;4.92;96.01;100098.20;110559;1266;22403;-76
2023/11/23 09:56:50;;;;;;;10.60;3.00;;;;;;;4.98;95.97;100092.81;110570;1273;22201;-76
2023/11/23 09:59:19;;;;;;;11.30;3.50;;;;;;;5.02;95.74;100079.03;110611;1269;22352;-79
2023/11/23 10:01:52;;;;;;;12.90;3.80;;;;;;;5.05;95.95;100070.85;110586;1273;23007;-77
2023/11/23 10:04:21;;;;;;;14.30;3.60;;;;;;;5.08;95.88;100061.81;110602;1272;22332;-77
2023/11/23 10:07:14;;;;;;;12.80;3.50;;;;;;;5.11;95.82;100056.40;110603;1270;22202;-78
2023/11/23 10:09:44;;;;;;;11.20;3.50;;;;;;;5.15;95.95;100053.82;110561;1273;22700;-77
2023/11/23 10:12:13;;;;;;;10.90;3.30;;;;;;;5.18;96.13;100050.08;110653;1272;22290;-78
2023/11/23 10:14:42;;;;;;;9.90;2.80;;;;;;;5.22;96.07;100038.34;110628;1270;22193;-77
2023/11/23 10:17:11;;;;;;;12.80;3.50;;;;;;;5.24;96.36;100024.95;110603;1273;22187;-77
2023/11/23 10:19:40;;;;;;;11.40;3.50;;;;;;;5.29;96.38;100014.28;110609;1262;22919;-78
2023/11/23 10:22:29;;;;;;;12.40;3.00;;;;;;;5.34;96.69;100011.56;110599;1263;22259;-78
2023/11/23 10:24:59;;;;;;;10.20;2.30;;;;;;;5.38;96.69;100000.89;110200;1278;22254;-78
2023/11/23 10:27:32;;;;;;;9.00;2.20;;;;;;;5.43;96.55;99990.44;110162;1278;22229;-78
2023/11/23 10:30:24;;;;;;;13.60;3.00;;;;;;;5.47;96.32;99988.22;110180;1278;22199;-77
2023/11/23 10:32:55;;;;;;;10.20;2.80;;;;;;;5.52;96.27;99978.55;110254;1276;23399;-78
2023/11/23 10:35:50;;;;;;;8.10;2.30;;;;;;;5.57;95.69;99973.80;110246;1277;22215;-78
2023/11/23 10:38:40;;;;;;;11.20;3.20;;;;;;;5.60;95.36;99969.55;110266;1277;22361;-78
2023/11/23 10:41:22;;;;;;;10.80;3.00;;;;;;;5.65;95.27;99969.39;110088;1273;22350;-78
2023/11/23 10:43:52;;;;;;;14.30;4.40;;;;;;;5.69;94.77;99959.83;110323;1275;22204;-77
2023/11/23 10:46:23;;;;;;;10.40;2.60;;;;;;;5.73;94.78;99945.01;110350;1268;22189;-78
2023/11/23 10:49:12;;;;;;;13.50;2.80;;;;;;;5.78;94.68;99927.74;110362;1266;22215;-77
2023/11/23 10:51:43;;;;;;;10.10;2.40;;;;;;;5.82;94.67;99916.67;110377;1275;22215;-77
2023/11/23 10:54:37;;;;;;;10.20;2.70;;;;;;;5.86;94.43;99915.68;110390;1275;22405;-77
2023/11/23 10:57:11;;;;;;;9.60;2.20;;;;;;;5.90;94.52;99903.95;109925;1281;22191;-77
2023/11/23 10:59:41;;;;;;;9.30;2.30;;;;;;;5.97;94.56;99890.15;109936;1281;22918;-77
2023/11/23 11:02:10;;;;;;;;;;;;;;;6.03;94.39;99884.90;109954;1277;22444;-77
2023/11/23 11:04:40;;;;;;;9.80;2.30;;;;;;;6.09;94.43;99877.88;109962;1281;23225;-78
2023/11/23 11:07:11;;;;;;;6.80;2.20;;;;;;;6.15;94.48;99864.16;110194;1278;22206;-77
2023/11/23 11:09:46;;;;;;;10.80;2.30;;;;;;;6.22;94.43;99860.63;110172;1278;22201;-78
2023/11/23 11:12:15;;;;;;;8.70;2.10;;;;;;;6.30;94.71;99858.52;110152;1275;23045;-77
2023/11/23 11:14:53;;;;;;;8.50;2.20;;;;;;;6.39;94.59;99856.82;110296;1273;22411;-77
2023/11/23 11:17:46;;;;;;;8.50;2.40;;;;;;;6.48;94.01;99850.12;109175;1250;24723;-77
2023/11/23 11:20:22;;;;;;;9.70;2.10;;;;;;;6.52;93.84;99854.67;110593;1269;22174;-77
2023/11/23 11:22:58;;;;;;;8.20;1.90;;;;;;;6.55;93.31;99852.44;110613;1260;22397;-78
2023/11/23 11:25:39;;;;;;;9.50;2.00;;;;;;;6.57;93.47;99845.27;110624;1266;22224;-78
2023/11/23 11:28:34;;;;;;;10.00;2.40;;;;;;;6.59;93.61;99837.14;110615;1273;22197;-77
2023/11/23 11:31:31;;;;;;;9.90;2.90;;;;;;;6.61;93.59;99833.61;110146;1275;22261;-77
2023/11/23 11:34:21;;;;;;;7.90;1.60;;;;;;;6.63;93.53;99824.48;110201;1274;22211;-77